Terminal Aerodrome Forecast
Issued by NWS

Home | Current Version | Previous Version | Graphics & Text | Print | Product List | Glossary On
Versions: 1 2 3 4 5 6 7 8 9 10 11 12 13 14 15 16
000
FTUS43 KABR 011100
TAFPIR
TAF
KPIR 011129Z 0112/0212 18014KT P6SM BKN200
     FM011400 31024G34KT P6SM SCT200
     FM020100 28007KT P6SM SKC=

USA.gov is the U.S. government's official web portal to all federal, state and local government web resources and services.